Latest Coastal Weather Observations for Ceduna

IDS60701

Issued at 5:51 am CDT Sunday 1 March 2015 (issued every 10 minutes, with the page automatically refreshed every 10 minutes)

About coastal observations | Map of coastal stations | Coastal observations for SA | Marine services | Other Formats
Station Details ID: 018012 Name: CEDUNA AMO Lat: -32.13 Lon: 133.70 Height: 15.3 m
Data from the previous 72 hours. | See also: Recent months at Ceduna
Date/Time
CDT
Temp

°C
Wind Pressure Rain
since 9am
mm
Weather Cloud Vis
km
Sea
Height
m
Swell
Dir
 
Speed
knots
Gust
knots
hPa Trend Height
m
Period
s
Dir
01/05:30am 17.6 S 12 19 1015.1 - 0.0 - Cloudy 10 - - - -
01/05:00am 17.6 S 13 17 1014.9 - 0.0 - Partly cloudy 10 - - - -
01/04:30am 17.8 SSE 13 18 1014.7 - 0.0 - Partly cloudy 10 - - - -
01/04:00am 17.8 SSE 14 19 1014.8 - 0.0 - Partly cloudy 10 - - - -
01/03:30am 18.0 SSE 13 19 1014.7 - 0.0 - Partly cloudy 10 - - - -
01/03:00am 17.9 SSE 11 17 1014.8 R 0.0 - Partly cloudy 10 - - - -
01/02:30am 18.4 S 15 19 1015.0 - 0.0 - Partly cloudy 10 - - - -
01/02:00am 18.5 S 13 18 1015.2 - 0.0 - Partly cloudy 10 - - - -
01/01:30am 18.6 SSE 13 17 1015.3 - 0.0 - Partly cloudy 10 - - - -
01/01:00am 18.7 SSE 14 19 1015.4 - 0.0 - Partly cloudy 10 - - - -
01/12:30am 18.7 S 15 19 1015.4 - 0.0 - Partly cloudy 10 - - - -
01/12:00am 19.0 S 15 21 1015.4 R 0.0 - Mostly cloudy 10 - - - -
 
Date/Time
CDT
Temp

°C
Wind Pressure Rain
since 9am
mm
Weather Cloud Vis
km
Sea
Height
m
Swell
Dir
 
Speed
knots
Gust
knots
hPa Trend Height
m
Period
s
Dir
28/11:30pm 19.0 S 15 20 1015.4 - 0.0 - Partly cloudy 10 - - - -
28/11:00pm 19.4 SSE 17 23 1015.1 - 0.0 - Partly cloudy 10 - - - -
28/10:30pm 19.2 S 17 22 1015.0 - 0.0 - Partly cloudy 10 - - - -
28/10:00pm 19.1 S 15 22 1014.6 - 0.0 - Partly cloudy 10 - - - -
28/09:30pm 19.3 S 15 25 1014.4 - 0.0 - Partly cloudy 10 - - - -
28/09:00pm 19.3 S 16 22 1014.0 R 0.0 - Cloudy 10 - - - -
28/08:30pm 19.5 S 18 25 1013.4 - 0.0 - Partly cloudy 10 - - - -
28/08:00pm 19.9 S 17 25 1013.0 - 0.0 - Partly cloudy 10 - - - -
28/07:30pm 20.2 S 19 26 1012.5 - 0.0 - Partly cloudy 10 - - - -
28/07:00pm 20.9 S 19 26 1011.9 - 0.0 - Partly cloudy 10 - - - -
28/06:30pm 21.4 S 18 24 1011.6 - 0.0 - Partly cloudy 10 - - - -
28/06:00pm 22.2 S 19 24 1011.1 R 0.0 - Cloudy 10 - - - -
28/05:30pm 22.3 S 21 27 1010.5 - 0.0 - Partly cloudy 10 - - - -
28/05:00pm 22.2 S 21 29 1010.1 - 0.0 - Partly cloudy 10 - - - -
28/04:31pm 23.8 S 20 25 1009.8 - 0.0 - Partly cloudy 10 - - - -
28/04:30pm 23.4 SSW 20 26 1009.7 - 0.0 - Partly cloudy 10 - - - -
28/04:00pm 22.8 SSW 19 24 1009.7 - 0.0 - Partly cloudy 10 - - - -
28/03:43pm 24.1 SSW 19 24 1009.5 - 0.0 - Partly cloudy 10 - - - -
28/03:30pm 23.9 SSW 20 24 1009.2 - 0.0 - Partly cloudy 10 - - - -
28/03:00pm 24.0 SSW 19 24 1009.1 R 0.0 - Mostly clear 10 - - - -
28/02:30pm 25.4 S 17 23 1009.0 - 0.0 - - 10 - - - -
28/02:00pm 25.5 S 18 24 1008.7 - 0.0 - Partly cloudy 10 - - - -
28/01:30pm 26.2 S 18 23 1008.3 - 0.0 - Partly cloudy 10 - - - -
28/01:00pm 25.0 SSE 17 24 1007.9 - 0.0 - Partly cloudy 10 - - - -
28/12:30pm 24.9 S 17 21 1008.1 - 0.0 - Partly cloudy 10 - - - -
28/12:00pm 23.3 S 15 21 1008.3 R 0.0 - Cloudy 10 - - - -
28/11:30am 23.8 S 15 20 1007.7 - 0.0 - Partly cloudy 10 - - - -
28/11:00am 24.4 S 14 20 1007.4 - 0.0 - Partly cloudy 10 - - - -
28/10:30am 24.5 S 15 19 1006.9 - 0.0 - Partly cloudy 10 - - - -
28/10:00am 23.7 SSW 14 17 1006.5 - 0.0 - - 10 - - - -
28/09:30am 24.7 SW 13 19 1006.1 - 0.0 - Partly cloudy 10 - - - -
28/09:00am 26.7 WSW 10 15 1005.4 R 0.0 - - 10 - - - -
28/08:30am 22.0 CALM 0 0 1004.8 - 0.0 - - 10 - - - -
28/08:00am 20.1 N 4 5 1004.2 - 0.0 - - 10 - - - -
28/07:30am 18.6 N 2 4 1003.8 - 0.0 - - 10 - - - -
28/07:00am 19.7 CALM 0 0 1003.5 - 0.0 - - 10 - - - -
28/06:30am 22.1 SW 2 5 1003.3 - 0.0 - Partly cloudy 10 - - - -
28/06:00am 22.3 SW 7 10 1003.3 R 0.0 - Mostly clear 10 - - - -
28/05:30am 19.7 WNW 4 5 1002.6 - 0.0 - Partly cloudy 10 - - - -
28/05:00am 18.9 NNW 4 5 1002.4 - 0.0 - - 10 - - - -
28/04:30am 20.4 W 3 4 1002.5 - 0.0 - - 10 - - - -
28/04:00am 21.0 SW 4 4 1002.5 - 0.0 - - 10 - - - -
28/03:30am 20.3 SW 4 5 1002.6 - 0.0 - - 10 - - - -
28/03:00am 20.1 SW 2 4 1002.5 F 0.0 - - 10 - - - -
28/02:30am 21.3 WSW 4 5 1002.9 - 0.0 - - 10 - - - -
28/02:00am 19.6 WSW 1 4 1003.1 - 0.0 - - 10 - - - -
28/01:30am 20.3 WNW 3 5 1003.3 - 0.0 - - 10 - - - -
28/01:00am 21.6 WSW 4 5 1003.4 - 0.0 - - 10 - - - -
28/12:30am 22.4 NNW 5 9 1003.7 - 0.0 - - 10 - - - -
28/12:00am 22.8 ENE 7 8 1003.7 F 0.0 - - 10 - - - -
 
Date/Time
CDT
Temp

°C
Wind Pressure Rain
since 9am
mm
Weather Cloud Vis
km
Sea
Height
m
Swell
Dir
 
Speed
knots
Gust
knots
hPa Trend Height
m
Period
s
Dir
27/11:30pm 23.8 NE 5 6 1003.8 - 0.0 - - 10 - - - -
27/11:00pm 25.3 E 8 9 1003.9 - 0.0 - - 10 - - - -
27/10:30pm 26.9 E 9 11 1003.8 - 0.0 - - 10 - - - -
27/10:00pm 27.3 E 9 11 1003.6 - 0.0 - - 10 - - - -
27/09:30pm 28.2 E 10 11 1003.4 - 0.0 - - 10 - - - -
27/09:00pm 29.1 ESE 8 10 1003.4 F 0.0 - Partly cloudy 10 - - - -
27/08:30pm 31.2 SE 9 13 1003.4 - 0.0 - Partly cloudy 10 - - - -
27/08:00pm 34.1 E 5 9 1003.3 - 0.0 - Partly cloudy 10 - - - -
27/07:30pm 36.5 N 9 13 1003.1 - 0.0 - Cloudy 10 - - - -
27/07:00pm 34.8 ENE 7 12 1003.4 - 0.0 - Partly cloudy 10 - - - -
27/06:30pm 34.4 ESE 9 11 1003.4 - 0.0 - Partly cloudy 10 - - - -
27/06:00pm 33.1 SE 10 13 1003.3 F 0.0 - Cloudy 10 - - - -
27/05:30pm 33.6 SE 9 12 1003.3 - 0.0 - Cloudy 10 - - - -
27/05:00pm 33.7 SSE 7 9 1003.5 - 0.0 - Cloudy 10 - - - -
27/04:30pm 31.5 SSE 9 11 1003.9 - 0.0 - Partly cloudy 10 - - - -
27/04:00pm 31.2 SSW 10 13 1004.4 - 0.0 - Cloudy 10 - - - -
27/03:30pm 29.2 SW 12 15 1005.3 - 0.0 - Partly cloudy 10 - - - -
27/03:03pm 29.7 NW 11 15 1005.7 - 0.0 - Cloudy 10 - - - -
27/03:00pm 35.4 NNW 12 16 1005.5 R 0.0 - Mostly cloudy 10 - - - -
27/02:30pm 34.7 NNW 16 21 1005.5 - 0.0 - Partly cloudy 10 - - - -
27/02:03pm 34.6 NW 15 25 1005.5 - 0.0 - Partly cloudy 10 - - - -
27/02:00pm 34.6 NW 14 20 1005.5 - 0.0 - Partly cloudy 10 - - - -
27/01:30pm 35.5 N 14 20 1005.7 - 0.0 - Partly cloudy 10 - - - -
27/01:00pm 36.1 N 17 24 1005.8 - 0.0 - - 10 - - - -
27/12:30pm 36.2 N 19 27 1006.2 - 0.0 - - 10 - - - -
27/12:00pm 37.4 N 19 25 1006.7 F 0.0 - - 10 - - - -
27/11:30am 36.6 N 20 27 1007.1 - 0.0 - - 10 - - - -
27/11:00am 34.7 N 17 23 1007.5 - 0.0 - - 10 - - - -
27/10:30am 32.0 N 15 19 1007.8 - 0.0 - - 10 - - - -
27/10:00am 31.0 NNE 14 17 1007.6 - 0.0 - Partly cloudy 10 - - - -
27/09:30am 30.0 NNE 15 19 1007.5 - 0.0 - - 10 - - - -
27/09:00am 29.4 NNE 12 16 1007.3 R 0.0 - Cloudy 10 - - - -
27/08:30am 28.7 NNE 13 19 1007.1 - 0.0 - - 10 - - - -
27/08:00am 28.4 NE 14 19 1006.6 - 0.0 - - 10 - - - -
27/07:30am 27.9 NE 15 18 1006.1 - 0.0 - - 10 - - - -
27/07:00am 27.9 ENE 15 18 1005.8 - 0.0 - - 10 - - - -
27/06:30am 27.6 NE 14 19 1005.8 - 0.0 - - 10 - - - -
27/06:00am 26.2 ENE 12 13 1005.7 F 0.0 - Cloudy 10 - - - -
27/05:30am 24.5 ENE 11 13 1005.5 - 0.0 - - 10 - - - -
27/05:00am 22.9 ENE 10 12 1005.6 - 0.0 - - 10 - - - -
27/04:30am 21.6 NE 8 9 1005.7 - 0.0 - - 10 - - - -
27/04:00am 20.8 NE 9 10 1005.9 - 0.0 - - 10 - - - -
27/03:30am 19.7 ENE 9 11 1006.0 - 0.0 - - 10 - - - -
27/03:00am 18.4 ENE 6 6 1006.2 F 0.0 - - 10 - - - -
27/02:30am 18.6 E 7 8 1006.7 - 0.0 - - 10 - - - -
27/02:00am 18.8 E 5 6 1007.5 - 0.0 - - 10 - - - -
27/01:30am 19.4 E 5 8 1007.9 - 0.0 - - 10 - - - -
27/01:00am 21.2 E 8 10 1008.1 - 0.0 - - 10 - - - -
27/12:30am 21.5 E 8 10 1007.9 - 0.0 - - 10 - - - -
27/12:00am 20.1 E 6 7 1008.5 F 0.0 - - 10 - - - -
 
Date/Time
CDT
Temp

°C
Wind Pressure Rain
since 9am
mm
Weather Cloud Vis
km
Sea
Height
m
Swell
Dir
 
Speed
knots
Gust
knots
hPa Trend Height
m
Period
s
Dir
26/11:30pm 21.8 ESE 7 9 1009.1 - 0.0 - - 10 - - - -
26/11:00pm 22.6 SE 6 10 1009.4 - 0.0 - - 10 - - - -
26/10:30pm 23.0 SE 8 12 1009.1 - 0.0 - - 10 - - - -
26/10:00pm 23.3 SE 7 11 1009.0 - 0.0 - - 10 - - - -
26/09:30pm 23.5 SSE 8 10 1009.1 - 0.0 - - 10 - - - -
26/09:00pm 24.2 SSE 8 10 1008.5 F 0.0 - - 10 - - - -
26/08:30pm 25.1 SSE 12 16 1008.2 - 0.0 - - 10 - - - -
26/08:00pm 25.3 SSE 15 19 1008.0 - 0.0 - - 10 - - - -
26/07:30pm 25.7 SSE 13 17 1008.0 - 0.0 - - 10 - - - -
26/07:00pm 26.9 S 14 17 1008.0 - 0.0 - - 10 - - - -
26/06:30pm 31.0 S 12 15 1007.7 - 0.0 - - 10 - - - -
26/06:00pm 32.6 S 12 14 1007.7 F 0.0 - - 10 - - - -
26/05:30pm 32.9 S 14 16 1007.8 - 0.0 - - 10 - - - -
26/05:00pm 32.7 S 13 16 1008.1 - 0.0 - - 10 - - - -
26/04:30pm 32.4 S 14 17 1008.2 - 0.0 - - 10 - - - -
26/04:00pm 31.8 S 15 17 1008.6 - 0.0 - - 10 - - - -
26/03:30pm 32.0 S 16 19 1008.8 - 0.0 - - 10 - - - -
26/03:00pm 32.6 S 14 18 1009.1 F 0.0 - - 10 - - - -
26/02:30pm 34.1 S 11 14 1009.2 - 0.0 - - 10 - - - -
26/02:00pm 33.0 S 12 15 1009.7 - 0.0 - - 10 - - - -
26/01:30pm 32.1 S 11 16 1010.0 - 0.0 - - 10 - - - -
26/01:00pm 33.3 SE 3 9 1010.8 - 0.0 - - 10 - - - -
26/12:30pm 33.0 E 6 9 1011.1 - 0.0 - - 10 - - - -
26/12:00pm 32.0 ENE 6 10 1011.6 F 0.0 - - 10 - - - -
26/11:30am 30.3 ENE 7 10 1012.0 - 0.0 - - 10 - - - -
26/11:00am 28.1 ENE 7 11 1012.2 - 0.0 - - 10 - - - -
26/10:30am 26.6 E 6 8 1012.7 - 0.0 - - 10 - - - -
26/10:00am 24.2 SSE 6 8 1012.9 - 0.0 - - 10 - - - -
26/09:30am 21.2 SE 5 7 1012.7 - 0.0 - - 10 - - - -
26/09:00am 19.1 ESE 4 5 1012.7 R 0.0 - - 10 - - - -
26/08:30am 16.2 S 1 3 1012.5 - 0.0 - - 10 - - - -
26/08:00am 14.7 NE 5 6 1012.0 - 0.0 - - 10 - - - -
26/07:30am 13.1 E 3 5 1011.7 - 0.0 - - 10 - - - -
26/07:00am 13.4 E 5 6 1011.4 - 0.0 - - 10 - - - -
26/06:30am 13.7 E 5 6 1011.1 - 0.0 - - 10 - - - -
26/06:00am 14.5 SE 4 4 1011.1 S 0.0 - Cloudy 10 - - - -

Other Formats:

Comma delimited format used in spreadsheet applications
http://www.bom.gov.au/fwo/IDS60701/IDS60701.94653.axf

JavaScript Object Notation format (JSON) in row-major order
http://www.bom.gov.au/fwo/IDS60701/IDS60701.94653.json